• Join FlightAware (Why Join?)
  • Login
  • US Flag 
06:46AM EDT


 

Airport Tracker/Info


-or-


 

Live Flight TrackerFlight Track Log ✈ CHB6210 ✈ 21-Aug-2014 ✈ ZHCC / CGO - ZUJZ / JZH

Flight Track Log - Related Links

Times and Time Zones

All times are in EDT time to prevent confusion due to time zone crossing. See the CHB6210 flight status page for this flight to view local times or setup timezone preferences in your user account.

Time Position Orientation Groundspeed Altitude Reporting Facility
EDT Latitude Longitude Course Direction KTS MPH feet Rate Location/Type
11:29PM 34.4404 113.1947 262° West  Level Estimated
11:30PM 34.4269 113.0871 261° West  Level Estimated
11:31PM 34.4133 112.9796 261° West  Level Estimated
11:32PM 34.3995 112.8720 261° West  Level Estimated
11:33PM 34.3857 112.7646 261° West  Level Estimated
11:34PM 34.3718 112.6571 261° West  Level Estimated
11:35PM 34.3578 112.5497 261° West  Level Estimated
11:36PM 34.3437 112.4423 261° West  Level Estimated
11:37PM 34.3295 112.3350 261° West  Level Estimated
11:38PM 34.3152 112.2277 261° West  Level Estimated
11:39PM 34.3008 112.1205 261° West  Level Estimated
11:40PM 34.2864 112.0132 261° West  Level Estimated
11:41PM 34.2718 111.9061 261° West  Level Estimated
11:42PM 34.2571 111.7989 261° West  Level Estimated
11:43PM 34.2424 111.6918 261° West  Level Estimated
11:44PM 34.2275 111.5847 261° West  Level Estimated
11:45PM 34.2126 111.4777 260° West  Level Estimated
11:46PM 34.1976 111.3707 260° West  Level Estimated
11:47PM 34.1824 111.2637 260° West  Level Estimated
11:48PM 34.1672 111.1568 260° West  Level Estimated
11:49PM 34.1519 111.0499 260° West  Level Estimated
11:50PM 34.1365 110.9431 260° West  Level Estimated
11:51PM 34.1210 110.8363 260° West  Level Estimated
11:52PM 34.1054 110.7295 260° West  Level Estimated
11:53PM 34.0897 110.6228 260° West  Level Estimated
11:54PM 34.0740 110.5161 260° West  Level Estimated
11:55PM 34.0581 110.4094 260° West  Level Estimated
11:56PM 34.0421 110.3028 260° West  Level Estimated
11:57PM 34.0261 110.1963 260° West  Level Estimated
11:58PM 34.0099 110.0898 260° West  Level Estimated
11:59PM 33.9937 109.9833 260° West  Level Estimated
12:00AM 33.9774 109.8768 260° West  Level Estimated
12:01AM 33.9610 109.7704 259° West  Level Estimated
12:02AM 33.9445 109.6641 259° West  Level Estimated
12:03AM 33.9279 109.5577 259° West  Level Estimated
12:04AM 33.9112 109.4515 259° West  Level Estimated
12:05AM 33.8944 109.3452 259° West  Level Estimated
12:06AM 33.8775 109.2390 259° West  Level Estimated
12:07AM 33.8605 109.1329 259° West  Level Estimated
12:08AM 33.8435 109.0268 259° West  Level Estimated
12:09AM 33.8264 108.9207 259° West  Level Estimated
12:10AM 33.8091 108.8147 259° West  Level Estimated
12:11AM 33.7918 108.7087 259° West  Level Estimated
12:12AM 33.7744 108.6028 259° West  Level Estimated
12:13AM 33.7569 108.4968 259° West  Level Estimated
12:14AM 33.7393 108.3910 259° West  Level Estimated
12:15AM 33.7216 108.2852 259° West  Level Estimated
12:16AM 33.7038 108.1794 259° West  Level Estimated
12:17AM 33.6859 108.0737 259° West  Level Estimated
12:18AM 33.6679 107.9680 258° West  Level Estimated
12:19AM 33.6499 107.8624 258° West  Level Estimated
12:20AM 33.6318 107.7568 258° West  Level Estimated
12:21AM 33.6135 107.6513 258° West  Level Estimated
12:22AM 33.5952 107.5458 258° West  Level Estimated
12:23AM 33.5768 107.4403 258° West  Level Estimated
12:24AM 33.5583 107.3349 258° West  Level Estimated
12:25AM 33.5397 107.2295 258° West  Level Estimated
12:26AM 33.5210 107.1242 258° West  Level Estimated
12:27AM 33.5023 107.0189 258° West  Level Estimated
12:28AM 33.4834 106.9137 258° West  Level Estimated
12:29AM 33.4645 106.8085 258° West  Level Estimated
12:30AM 33.4454 106.7034 258° West  Level Estimated
12:31AM 33.4263 106.5983 258° West  Level Estimated
12:32AM 33.4071 106.4932 258° West  Level Estimated
12:33AM 33.3878 106.3883 258° West  Level Estimated
12:34AM 33.3684 106.2833 258° West  Level Estimated
12:35AM 33.3490 106.1784 257° West  Level Estimated
12:36AM 33.3294 106.0735 257° West  Level Estimated
12:37AM 33.3097 105.9687 257° West  Level Estimated
12:38AM 33.2900 105.8640 257° West  Level Estimated
12:39AM 33.2702 105.7593 257° West  Level Estimated
12:40AM 33.2503 105.6546 257° West  Level Estimated
12:41AM 33.2303 105.5500 257° West  Level Estimated
12:42AM 33.2102 105.4454 257° West  Level Estimated
12:43AM 33.1900 105.3409 257° West  Level Estimated
12:44AM 33.1697 105.2364 257° West  Level Estimated
12:45AM 33.1494 105.1320 257° West  Level Estimated
12:46AM 33.1289 105.0276 257° West  Level Estimated
12:47AM 33.1084 104.9233 257° West  Level Estimated
12:48AM 33.0878 104.8190 257° West  Level Estimated
12:49AM 33.0671 104.7148 257° West  Level Estimated
12:50AM 33.0463 104.6106 257° West  Level Estimated
12:51AM 33.0255 104.5064 257° West  Level Estimated
12:52AM 33.0045 104.4024 257° West  Level Estimated
12:53AM 32.9835 104.2983 256° West  Level Estimated
12:54AM 32.9623 104.1944 256° West  Level Estimated
12:55AM 32.9411 104.0904 256° West  Level Estimated
12:56AM 32.9198 103.9865 256° West  Level Estimated
12:57AM 32.8984 103.8827 256° West  Level Estimated
12:58AM 32.8769 103.7789 256° West  Level Estimated
12:59AM 32.8570 103.6830 256° West  Level Estimated
01:00AM 32.8570 103.6830 North  Level Estimated
01:01AM 32.8570 103.6830 North  Level Estimated
01:02AM 32.8570 103.6830 North  Level Estimated
01:03AM 32.8570 103.6830 North  Level Estimated
01:04AM 32.8570 103.6830 North  Level Estimated
01:05AM 32.8570 103.6830 North  Level Estimated